createdAt,value
2019-05-29T00:00:02.730Z,23.65
2019-05-29T00:02:37.231Z,23.63
2019-05-29T00:05:10.779Z,23.55
2019-05-29T00:07:43.908Z,23.49
2019-05-29T00:10:18.349Z,23.40
2019-05-29T00:12:51.307Z,23.37
2019-05-29T00:15:25.977Z,23.43
2019-05-29T00:17:59.349Z,23.40
2019-05-29T00:20:32.669Z,23.29
2019-05-29T00:23:06.447Z,23.19
2019-05-29T00:25:39.733Z,23.18
2019-05-29T00:28:13.038Z,23.15
2019-05-29T00:30:46.370Z,23.11
2019-05-29T00:33:19.825Z,23.09
2019-05-29T00:35:53.347Z,23.07
2019-05-29T00:38:26.724Z,23.08
2019-05-29T00:41:00.049Z,23.09
2019-05-29T00:43:33.328Z,23.08
2019-05-29T00:46:07.311Z,23.14
2019-05-29T00:48:40.049Z,23.15
2019-05-29T00:51:13.346Z,23.13
2019-05-29T00:53:46.604Z,23.07
2019-05-29T00:56:19.964Z,22.95
2019-05-29T00:58:53.568Z,22.88
2019-05-29T01:01:26.922Z,22.88
2019-05-29T01:04:00.202Z,22.91
2019-05-29T01:06:33.534Z,22.98
2019-05-29T01:09:08.014Z,22.92
2019-05-29T01:11:41.441Z,22.95
2019-05-29T01:14:15.136Z,22.90
2019-05-29T01:16:48.420Z,22.87
2019-05-29T01:19:27.668Z,22.92
2019-05-29T01:22:00.974Z,22.89
2019-05-29T01:24:34.455Z,22.86
2019-05-29T01:27:07.774Z,22.84
2019-05-29T01:29:41.043Z,22.76
2019-05-29T01:32:15.495Z,22.66
2019-05-29T01:34:48.390Z,22.65
2019-05-29T01:37:22.257Z,22.64
2019-05-29T01:39:55.182Z,22.67
2019-05-29T01:42:28.422Z,22.64
2019-05-29T01:45:07.620Z,22.63
2019-05-29T01:47:36.273Z,22.64
2019-05-29T01:50:09.542Z,22.63
2019-05-29T01:52:43.077Z,22.63
2019-05-29T01:55:17.600Z,22.61
2019-05-29T01:57:50.516Z,22.60
2019-05-29T02:00:24.257Z,22.68
2019-05-29T02:02:57.601Z,22.71
2019-05-29T02:05:30.910Z,22.70
2019-05-29T02:08:03.989Z,22.60
2019-05-29T02:10:37.228Z,22.58
2019-05-29T02:13:10.556Z,22.51
2019-05-29T02:15:43.823Z,22.45
2019-05-29T02:18:17.173Z,22.37
2019-05-29T02:20:50.416Z,22.34
2019-05-29T02:23:24.217Z,22.38
2019-05-29T02:25:57.309Z,22.29
2019-05-29T02:28:30.739Z,22.31
2019-05-29T02:31:04.019Z,22.30
2019-05-29T02:33:37.350Z,22.29
2019-05-29T02:36:10.711Z,22.31
2019-05-29T02:38:44.034Z,22.24
2019-05-29T02:41:19.110Z,22.23
2019-05-29T02:43:52.579Z,22.24
2019-05-29T02:46:26.541Z,22.25
2019-05-29T02:49:00.370Z,22.34
2019-05-29T02:51:33.648Z,22.47
2019-05-29T02:54:07.237Z,22.50
2019-05-29T02:56:42.665Z,22.50
2019-05-29T02:59:15.604Z,22.52
2019-05-29T03:01:48.875Z,22.40
2019-05-29T03:04:23.863Z,22.33
2019-05-29T03:06:56.762Z,22.27
2019-05-29T03:09:30.821Z,22.30
2019-05-29T03:12:03.736Z,22.23
2019-05-29T03:14:37.023Z,22.32
2019-05-29T03:17:10.283Z,22.41
2019-05-29T03:19:43.608Z,22.36
2019-05-29T03:22:16.987Z,22.34
2019-05-29T03:24:50.321Z,22.39
2019-05-29T03:27:23.669Z,22.40
2019-05-29T03:29:56.998Z,22.48
2019-05-29T03:32:39.098Z,22.69
2019-05-29T03:35:07.383Z,22.57
2019-05-29T03:37:40.037Z,22.64
2019-05-29T03:40:13.419Z,22.85
2019-05-29T03:42:46.822Z,23.01
2019-05-29T03:45:20.252Z,23.24
2019-05-29T03:47:53.610Z,23.24
2019-05-29T03:50:28.902Z,23.48
2019-05-29T03:53:01.375Z,23.90
2019-05-29T03:55:35.937Z,24.24
2019-05-29T03:58:08.939Z,24.29
2019-05-29T04:00:46.411Z,24.16
2019-05-29T04:03:16.494Z,24.23
2019-05-29T04:05:49.830Z,24.19
2019-05-29T04:08:22.946Z,24.30
2019-05-29T04:10:56.482Z,24.42
2019-05-29T04:13:31.699Z,24.34
2019-05-29T04:16:04.202Z,24.49
2019-05-29T04:18:38.101Z,24.66
2019-05-29T04:21:11.992Z,24.65
2019-05-29T04:23:44.866Z,24.56
2019-05-29T04:26:18.290Z,24.40
2019-05-29T04:28:51.660Z,24.27
2019-05-29T04:31:25.086Z,24.15
2019-05-29T04:33:58.275Z,23.65
2019-05-29T04:36:32.912Z,23.50
2019-05-29T04:39:07.809Z,23.49
2019-05-29T04:41:40.634Z,23.51
2019-05-29T04:44:14.000Z,23.71
2019-05-29T04:46:47.329Z,23.86
2019-05-29T04:49:20.579Z,23.94
2019-05-29T04:51:53.920Z,24.23
2019-05-29T04:54:27.194Z,24.66
2019-05-29T04:57:00.557Z,25.02
2019-05-29T04:59:34.955Z,25.46
2019-05-29T05:02:07.847Z,25.66
2019-05-29T05:04:40.978Z,26.06
2019-05-29T05:07:14.336Z,26.15
2019-05-29T05:09:47.474Z,26.37
2019-05-29T05:12:20.862Z,26.62
2019-05-29T05:14:54.065Z,26.73
2019-05-29T05:17:27.504Z,26.77
2019-05-29T05:20:00.847Z,26.69
2019-05-29T05:22:34.378Z,26.75
2019-05-29T05:25:07.930Z,26.97
2019-05-29T05:27:41.296Z,26.94
2019-05-29T05:30:14.551Z,27.05
2019-05-29T05:32:47.871Z,27.13
2019-05-29T05:35:21.125Z,27.17
2019-05-29T05:37:54.456Z,27.16
2019-05-29T05:40:27.739Z,27.07
2019-05-29T05:43:01.262Z,26.97
2019-05-29T05:45:35.125Z,27.02
2019-05-29T05:48:08.418Z,27.23
2019-05-29T05:50:41.731Z,27.48
2019-05-29T05:53:15.066Z,27.67
2019-05-29T05:55:48.315Z,27.83
2019-05-29T05:58:21.688Z,27.78
2019-05-29T06:00:54.806Z,27.74
2019-05-29T06:03:28.160Z,27.71
2019-05-29T06:06:01.506Z,27.82
2019-05-29T06:08:36.083Z,28.04
2019-05-29T06:11:09.187Z,28.23
2019-05-29T06:13:42.804Z,28.80
2019-05-29T06:16:16.331Z,29.09
2019-05-29T06:18:49.646Z,29.65
2019-05-29T06:21:22.894Z,29.84
2019-05-29T06:23:56.234Z,30.60
2019-05-29T06:26:29.597Z,31.67
2019-05-29T06:29:03.049Z,32.61
2019-05-29T06:31:37.162Z,33.32
2019-05-29T10:37:48.850Z,29.59
2019-05-29T10:40:22.070Z,29.31
2019-05-29T10:42:56.245Z,29.08
2019-05-29T10:45:29.552Z,29.01
2019-05-29T10:48:02.872Z,28.99
2019-05-29T10:50:36.146Z,28.79
2019-05-29T10:53:09.489Z,28.67
2019-05-29T10:55:42.786Z,28.49
2019-05-29T10:58:16.042Z,28.45
2019-05-29T11:00:49.325Z,28.45
2019-05-29T11:03:22.872Z,28.45
2019-05-29T11:05:56.463Z,28.42
2019-05-29T11:08:30.449Z,28.44
2019-05-29T11:11:03.747Z,28.46
2019-05-29T11:13:37.076Z,28.43
2019-05-29T11:16:10.326Z,28.49
2019-05-29T11:18:43.659Z,28.48
2019-05-29T11:21:16.909Z,28.44
2019-05-29T11:23:50.242Z,28.34
2019-05-29T11:26:23.423Z,28.32
2019-05-29T11:28:56.936Z,28.30
2019-05-29T11:31:31.344Z,28.25
2019-05-29T11:34:04.652Z,28.10
2019-05-29T11:36:37.914Z,28.11
2019-05-29T11:39:11.570Z,28.26
2019-05-29T11:41:44.914Z,28.24
2019-05-29T11:44:18.250Z,28.19
2019-05-29T11:46:52.144Z,28.23
2019-05-29T11:49:25.408Z,28.13
2019-05-29T11:52:21.709Z,28.13
2019-05-29T11:54:33.094Z,28.17
2019-05-29T11:57:06.426Z,28.17
2019-05-29T11:59:39.747Z,28.23
2019-05-29T12:02:13.017Z,28.37
2019-05-29T12:04:46.383Z,28.39
2019-05-29T12:07:19.713Z,28.50
2019-05-29T12:09:53.326Z,28.60
2019-05-29T12:12:26.269Z,28.65
2019-05-29T12:15:09.851Z,28.59
2019-05-29T12:17:34.799Z,28.49
2019-05-29T12:20:26.483Z,28.46
2019-05-29T12:23:07.096Z,28.38
2019-05-29T12:25:17.854Z,28.34
2019-05-29T12:27:52.614Z,28.32
2019-05-29T12:30:25.541Z,28.32
2019-05-29T12:32:59.218Z,28.33
2019-05-29T12:35:32.666Z,28.38
2019-05-29T12:38:05.911Z,28.25
2019-05-29T12:40:39.240Z,28.17
2019-05-29T12:43:26.795Z,28.17
2019-05-29T12:45:47.092Z,28.21
2019-05-29T12:48:20.348Z,28.25
2019-05-29T12:50:54.130Z,28.29
2019-05-29T12:53:30.834Z,28.30
2019-05-29T12:56:02.659Z,28.35
2019-05-29T12:58:36.638Z,28.33
2019-05-29T13:01:10.776Z,28.34
2019-05-29T13:03:45.862Z,28.35
2019-05-29T13:06:19.038Z,28.28
2019-05-29T13:08:52.315Z,28.24
2019-05-29T13:11:25.643Z,28.23
2019-05-29T13:14:00.571Z,28.31
2019-05-29T13:16:34.101Z,28.37
2019-05-29T13:19:07.343Z,28.37
2019-05-29T13:21:40.676Z,28.34
2019-05-29T13:24:14.533Z,28.23
2019-05-29T13:26:48.079Z,28.14
2019-05-29T13:29:21.346Z,28.05
2019-05-29T13:31:57.075Z,28.01
2019-05-29T13:34:29.086Z,27.93
2019-05-29T13:37:04.755Z,27.96
2019-05-29T13:39:36.699Z,27.97
2019-05-29T13:42:12.092Z,27.96
2019-05-29T13:44:45.811Z,27.90
2019-05-29T13:47:19.009Z,27.78
2019-05-29T13:49:52.325Z,27.83
2019-05-29T13:52:25.634Z,27.79
2019-05-29T13:54:59.279Z,27.76
2019-05-29T13:57:32.749Z,27.78
2019-05-29T14:00:31.672Z,27.85
2019-05-29T14:02:45.440Z,27.94
2019-05-29T14:05:18.190Z,27.93
2019-05-29T14:07:51.563Z,27.94
2019-05-29T14:10:25.186Z,27.99
2019-05-29T14:12:58.914Z,27.88
2019-05-29T14:15:31.814Z,27.93
2019-05-29T14:18:06.852Z,27.96
2019-05-29T14:20:39.537Z,27.95
2019-05-29T14:23:13.079Z,27.96
2019-05-29T14:25:46.334Z,27.92
2019-05-29T14:28:19.670Z,27.88
2019-05-29T14:30:53.020Z,27.86
2019-05-29T14:33:26.360Z,27.78
2019-05-29T14:36:00.985Z,27.79
2019-05-29T14:38:34.078Z,27.77
2019-05-29T14:41:08.165Z,27.73
2019-05-29T14:43:42.996Z,27.74
2019-05-29T14:46:18.096Z,27.73
2019-05-29T14:48:51.378Z,27.68
2019-05-29T14:51:24.538Z,27.68
2019-05-29T14:53:57.955Z,27.68
2019-05-29T14:56:31.496Z,27.67
2019-05-29T14:59:05.648Z,27.64
2019-05-29T15:01:39.192Z,27.65
2019-05-29T15:04:14.521Z,27.67
2019-05-29T15:06:47.093Z,27.67
2019-05-29T15:09:20.466Z,27.70
2019-05-29T15:11:53.724Z,27.77
2019-05-29T15:14:27.062Z,27.75
2019-05-29T15:17:00.321Z,27.69
2019-05-29T15:19:33.739Z,27.68
2019-05-29T15:22:09.298Z,27.62
2019-05-29T15:24:59.228Z,27.64
2019-05-29T15:27:16.686Z,27.69
2019-05-29T15:29:50.190Z,27.74
2019-05-29T15:32:23.572Z,27.85
2019-05-29T15:34:57.826Z,27.91
2019-05-29T15:37:31.477Z,27.96
2019-05-29T15:40:09.035Z,27.98
2019-05-29T15:42:42.775Z,27.99
2019-05-29T15:45:15.982Z,28.03
2019-05-29T15:47:49.310Z,28.03
2019-05-29T15:50:22.622Z,28.11
2019-05-29T15:52:55.876Z,28.13
2019-05-29T15:55:34.389Z,28.17
2019-05-29T15:58:04.029Z,28.19
2019-05-29T16:00:37.331Z,28.21
2019-05-29T16:03:11.504Z,28.23
2019-05-29T16:05:44.788Z,28.25
2019-05-29T16:08:18.352Z,28.26
2019-05-29T16:10:51.830Z,28.28
2019-05-29T16:13:25.120Z,28.25
2019-05-29T16:15:58.557Z,28.17
2019-05-29T16:18:31.997Z,28.14
2019-05-29T16:21:05.773Z,28.13
2019-05-29T16:23:38.799Z,28.08
2019-05-29T16:26:13.093Z,28.04
2019-05-29T16:28:46.132Z,28.06
2019-05-29T16:31:19.446Z,28.09
2019-05-29T16:33:53.489Z,28.09
2019-05-29T16:36:26.644Z,28.04
2019-05-29T16:39:00.087Z,28.01
2019-05-29T16:41:33.436Z,27.98
2019-05-29T16:44:06.684Z,27.94
2019-05-29T16:46:40.540Z,27.89
2019-05-29T16:49:14.466Z,27.82
2019-05-29T16:51:47.338Z,27.81
2019-05-29T16:54:21.026Z,27.82
2019-05-29T16:56:54.546Z,27.81
2019-05-29T16:59:29.730Z,27.82
2019-05-29T17:02:04.416Z,27.81
2019-05-29T17:04:37.682Z,27.82
2019-05-29T17:07:11.114Z,27.80
2019-05-29T17:09:44.472Z,27.72
2019-05-29T17:12:18.408Z,27.72
2019-05-29T17:14:51.436Z,27.69
2019-05-29T17:17:24.790Z,27.72
2019-05-29T17:19:58.146Z,27.70
2019-05-29T17:22:31.772Z,27.66
2019-05-29T17:25:06.196Z,27.64
2019-05-29T17:27:40.450Z,27.60
2019-05-29T17:30:16.571Z,27.55
2019-05-29T17:32:49.560Z,27.55
2019-05-29T17:35:23.165Z,27.56
2019-05-29T17:37:56.230Z,27.56
2019-05-29T17:40:29.323Z,27.50
2019-05-29T17:43:02.673Z,27.45
2019-05-29T17:45:35.910Z,27.45
2019-05-29T17:48:09.275Z,27.38
2019-05-29T17:50:43.113Z,27.36
2019-05-29T17:53:17.815Z,27.31
2019-05-29T17:55:50.695Z,27.32
2019-05-29T17:58:25.049Z,27.31
2019-05-29T18:00:58.735Z,27.30
2019-05-29T18:03:32.730Z,27.27
2019-05-29T18:06:06.068Z,27.26
2019-05-29T18:08:39.405Z,27.27
2019-05-29T18:11:12.821Z,27.29
2019-05-29T18:13:45.479Z,27.28
2019-05-29T18:16:19.404Z,27.25
2019-05-29T18:18:52.904Z,27.23
2019-05-29T18:21:25.897Z,27.22
2019-05-29T18:23:59.474Z,27.23
2019-05-29T18:26:46.291Z,27.23
2019-05-29T18:29:07.208Z,27.25
2019-05-29T18:31:40.557Z,27.23
2019-05-29T18:34:14.093Z,27.18
2019-05-29T18:36:47.363Z,27.12
2019-05-29T18:39:20.741Z,27.12
2019-05-29T18:41:53.834Z,27.14
2019-05-29T18:44:27.259Z,27.12
2019-05-29T18:47:00.593Z,27.11
2019-05-29T18:49:34.930Z,27.11
2019-05-29T18:52:08.346Z,27.14
2019-05-29T18:54:42.118Z,27.13
2019-05-29T18:57:16.204Z,27.08
2019-05-29T18:59:49.169Z,27.02
2019-05-29T19:02:23.318Z,27.00
2019-05-29T19:04:56.600Z,26.98
2019-05-29T19:07:30.166Z,26.97
2019-05-29T19:10:06.778Z,26.98
2019-05-29T19:12:39.422Z,27.02
2019-05-29T19:15:12.893Z,26.98
2019-05-29T19:17:46.418Z,26.96
2019-05-29T19:20:19.761Z,26.95
2019-05-29T19:22:53.382Z,26.92
2019-05-29T19:25:26.813Z,26.96
2019-05-29T19:28:00.306Z,26.95
2019-05-29T19:30:33.304Z,26.92
2019-05-29T19:33:06.506Z,26.86
2019-05-29T19:35:39.845Z,26.84
2019-05-29T19:38:12.959Z,26.87
2019-05-29T19:40:47.369Z,26.84
2019-05-29T19:43:20.088Z,26.79
2019-05-29T19:45:53.417Z,26.78
2019-05-29T19:48:26.895Z,26.76
2019-05-29T19:51:00.114Z,26.77
2019-05-29T19:53:35.652Z,26.76
2019-05-29T19:56:09.102Z,26.73
2019-05-29T19:58:42.218Z,26.71
2019-05-29T20:01:30.201Z,26.69
2019-05-29T20:03:49.534Z,26.69
2019-05-29T20:06:23.379Z,26.69
2019-05-29T20:08:56.723Z,26.67
2019-05-29T20:11:31.546Z,26.65
2019-05-29T20:14:07.564Z,26.64
2019-05-29T20:16:39.940Z,26.66
2019-05-29T20:19:13.351Z,26.63
2019-05-29T20:21:46.080Z,26.57
2019-05-29T20:24:19.273Z,26.48
2019-05-29T20:26:52.316Z,26.46
2019-05-29T20:29:25.582Z,26.46
2019-05-29T20:31:59.070Z,26.49
2019-05-29T20:34:32.774Z,26.45
2019-05-29T20:37:06.180Z,26.41
2019-05-29T20:39:39.437Z,26.38
2019-05-29T20:42:12.776Z,26.39
2019-05-29T20:44:46.045Z,26.35
2019-05-29T20:47:19.432Z,26.28
2019-05-29T20:49:52.979Z,26.26
2019-05-29T20:52:26.157Z,26.18
2019-05-29T20:55:00.343Z,26.12
2019-05-29T20:57:33.856Z,26.10
2019-05-29T21:00:10.772Z,26.02
2019-05-29T21:02:44.072Z,25.88
2019-05-29T21:05:17.457Z,25.85
2019-05-29T21:07:50.645Z,25.83
2019-05-29T21:10:24.002Z,25.82
2019-05-29T21:12:57.441Z,25.75
2019-05-29T21:15:30.707Z,25.72
2019-05-29T21:18:04.317Z,25.72
2019-05-29T21:20:38.358Z,25.76
2019-05-29T21:23:11.533Z,25.78
2019-05-29T21:25:45.026Z,25.76
2019-05-29T21:28:18.438Z,25.71
2019-05-29T21:30:51.703Z,25.69
2019-05-29T21:33:25.034Z,25.66
2019-05-29T21:35:58.281Z,25.65
2019-05-29T21:38:31.723Z,25.67
2019-05-29T21:41:05.584Z,25.69
2019-05-29T21:43:38.921Z,25.69
2019-05-29T21:46:12.181Z,25.69
2019-05-29T21:48:45.520Z,25.71
2019-05-29T21:51:18.838Z,25.65
2019-05-29T21:53:52.138Z,25.65
2019-05-29T21:56:25.369Z,25.65
2019-05-29T21:59:03.876Z,25.65
2019-05-29T22:01:34.155Z,25.61
2019-05-29T22:04:07.119Z,25.54
2019-05-29T22:06:40.499Z,25.51
2019-05-29T22:09:15.108Z,25.43
2019-05-29T22:11:47.721Z,25.41
2019-05-29T22:14:21.848Z,25.40
2019-05-29T22:16:57.123Z,25.30
2019-05-29T22:19:30.437Z,25.19
2019-05-29T22:22:03.940Z,25.20
2019-05-29T22:24:37.587Z,25.24
2019-05-29T22:27:10.770Z,25.18
2019-05-29T22:29:44.137Z,25.15
2019-05-29T22:32:17.541Z,25.07
2019-05-29T22:34:52.076Z,25.01
2019-05-29T22:37:25.947Z,24.97
2019-05-29T22:39:59.731Z,24.96
2019-05-29T22:42:33.444Z,25.01
2019-05-29T22:45:07.771Z,25.04
2019-05-29T22:47:40.994Z,25.03
2019-05-29T22:50:14.898Z,25.02
2019-05-29T22:52:48.360Z,25.00
2019-05-29T22:55:21.414Z,25.00
2019-05-29T22:57:55.845Z,24.97
2019-05-29T23:00:28.839Z,24.94
2019-05-29T23:03:02.487Z,24.96
2019-05-29T23:05:35.980Z,24.95
2019-05-29T23:08:09.110Z,24.89
2019-05-29T23:10:42.572Z,24.84
2019-05-29T23:13:16.097Z,24.82
2019-05-29T23:15:49.632Z,24.78
2019-05-29T23:18:22.889Z,24.76
2019-05-29T23:20:56.379Z,24.80
2019-05-29T23:23:29.349Z,24.76
2019-05-29T23:26:03.055Z,24.74
2019-05-29T23:28:36.486Z,24.72
2019-05-29T23:31:10.022Z,24.68
2019-05-29T23:33:43.387Z,24.66
2019-05-29T23:36:16.919Z,24.66
2019-05-29T23:38:50.376Z,24.62
2019-05-29T23:41:24.829Z,24.59
2019-05-29T23:43:59.299Z,24.51
2019-05-29T23:46:32.334Z,24.51
2019-05-29T23:49:05.965Z,24.54
2019-05-29T23:51:39.250Z,24.56
2019-05-29T23:54:12.510Z,24.50
2019-05-29T23:56:45.982Z,24.42
2019-05-29T23:59:19.209Z,24.41
